Time;durP1;ratioP1;P1;durP2;ratioP2;P2;SDS_P1;SDS_P2;PMS_P1;PMS_P2;Temp;Humidity;BMP_temperature;BMP_pressure;BME280_temperature;BME280_humidity;BME280_pressure;Samples;Min_cycle;Max_cycle;Signal;HPM_P1;HPM_P2
2022/07/20 00:01:14;;;;;;;6.00;5.47;;;21.00;99.90;;;;;;4953141;28;20224;-70
2022/07/20 00:03:41;;;;;;;8.20;5.10;;;21.00;99.90;;;;;;4953215;28;20650;-72
2022/07/20 00:06:07;;;;;;;11.40;5.93;;;21.00;99.90;;;;;;4951798;28;20240;-73
2022/07/20 00:11:19;;;;;;;6.37;4.90;;;20.90;99.90;;;;;;4952688;28;20466;-71
2022/07/20 00:13:48;;;;;;;15.57;6.33;;;20.90;99.90;;;;;;4952981;28;20881;-70
2022/07/20 00:16:14;;;;;;;6.07;5.27;;;20.80;99.90;;;;;;4952819;29;20431;-72
2022/07/20 00:18:39;;;;;;;7.43;5.83;;;20.80;99.90;;;;;;4953066;29;20417;-73
2022/07/20 00:21:05;;;;;;;8.90;5.77;;;20.70;99.90;;;;;;4952859;28;20260;-70
2022/07/20 00:23:31;;;;;;;6.67;5.40;;;20.70;99.90;;;;;;4952490;29;20177;-72
2022/07/20 00:25:56;;;;;;;7.47;5.60;;;20.70;99.90;;;;;;4936725;29;20185;-72
2022/07/20 00:28:22;;;;;;;9.93;5.47;;;20.70;99.90;;;;;;4953958;29;20181;-72
2022/07/20 00:30:47;;;;;;;6.53;5.70;;;20.60;99.90;;;;;;4952695;28;20240;-71
2022/07/20 00:33:13;;;;;;;7.63;6.07;;;20.60;99.90;;;;;;4952086;29;20295;-72
2022/07/20 00:35:38;;;;;;;6.57;5.87;;;20.50;99.90;;;;;;4954042;29;20181;-73
2022/07/20 00:38:04;;;;;;;6.70;5.83;;;20.50;99.90;;;;;;4952129;29;20181;-69
2022/07/20 00:40:30;;;;;;;8.53;5.63;;;20.40;99.90;;;;;;4952124;29;20606;-72
2022/07/20 00:42:55;;;;;;;6.57;5.80;;;20.40;99.90;;;;;;4951792;28;20564;-72
2022/07/20 00:45:21;;;;;;;10.13;5.50;;;20.40;99.90;;;;;;4935923;29;20229;-72
2022/07/20 00:47:48;;;;;;;8.70;5.70;;;20.40;99.90;;;;;;4952276;29;20180;-71
2022/07/20 00:50:14;;;;;;;7.80;5.70;;;20.30;99.90;;;;;;4952205;29;20651;-71
2022/07/20 00:52:40;;;;;;;5.90;5.30;;;20.30;99.90;;;;;;4951339;28;20478;-73
2022/07/20 00:55:07;;;;;;;7.50;5.47;;;20.20;99.90;;;;;;4936032;29;20853;-72
2022/07/20 00:57:33;;;;;;;5.47;4.93;;;20.20;99.90;;;;;;4936233;29;20468;-72
2022/07/20 00:59:59;;;;;;;8.23;5.73;;;20.20;99.90;;;;;;4951852;29;20948;-72
2022/07/20 02:33:02;;;;;;;7.80;5.40;;;18.80;99.90;;;;;;5020538;23;20494;-71
2022/07/20 02:35:28;;;;;;;5.97;4.80;;;18.80;99.90;;;;;;4972736;28;20447;-72
2022/07/20 02:37:54;;;;;;;6.20;5.60;;;18.80;99.90;;;;;;4973131;28;20943;-73
2022/07/20 02:40:19;;;;;;;6.30;5.33;;;18.70;99.90;;;;;;4975059;28;20868;-71
2022/07/20 02:42:44;;;;;;;6.00;4.63;;;18.70;99.90;;;;;;4971770;28;20320;-69
2022/07/20 02:45:10;;;;;;;6.07;5.13;;;18.60;99.90;;;;;;4973939;28;20188;-72
2022/07/20 02:47:43;;;;;;;6.10;5.60;;;18.60;99.90;;;;;;4975052;28;20215;-72
2022/07/20 02:50:09;;;;;;;8.00;5.63;;;18.60;99.90;;;;;;4972294;28;20191;-72
2022/07/20 02:52:34;;;;;;;8.93;5.43;;;18.50;99.90;;;;;;4973968;28;20836;-73
2022/07/20 02:55:00;;;;;;;7.60;5.30;;;18.50;99.90;;;;;;4965649;28;20622;-72
2022/07/20 02:57:25;;;;;;;7.83;6.30;;;18.40;99.90;;;;;;4954899;29;20177;-71
2022/07/20 02:59:51;;;;;;;8.60;5.63;;;18.40;99.90;;;;;;4969939;28;20187;-73
2022/07/20 03:02:16;;;;;;;7.93;5.20;;;18.40;99.90;;;;;;4973253;28;20571;-72
2022/07/20 03:04:42;;;;;;;12.00;5.97;;;18.40;99.90;;;;;;4973015;28;20188;-72
2022/07/20 03:07:07;;;;;;;9.60;5.73;;;18.40;99.90;;;;;;4974746;28;20586;-71
2022/07/20 03:09:33;;;;;;;7.40;5.43;;;18.30;99.90;;;;;;4971913;28;20184;-72
2022/07/20 03:11:58;;;;;;;6.50;4.93;;;18.30;99.90;;;;;;4972517;28;20211;-72
2022/07/20 03:14:24;;;;;;;7.50;5.50;;;18.30;99.90;;;;;;4971936;28;20199;-69
2022/07/20 03:16:51;;;;;;;6.20;5.60;;;18.30;99.90;;;;;;4974427;28;20199;-72
2022/07/20 03:19:17;;;;;;;6.33;5.43;;;18.20;99.90;;;;;;4975374;28;20164;-72
2022/07/20 03:21:42;;;;;;;6.40;5.77;;;18.30;99.90;;;;;;4970480;28;20547;-73
2022/07/20 03:24:08;;;;;;;11.20;5.27;;;18.20;99.90;;;;;;4966894;28;20644;-71
2022/07/20 03:26:33;;;;;;;6.90;6.10;;;18.20;99.90;;;;;;4972262;28;20192;-72
2022/07/20 03:28:59;;;;;;;10.30;5.40;;;18.20;99.90;;;;;;4971701;28;20661;-71
2022/07/20 03:31:24;;;;;;;6.80;5.20;;;18.10;99.90;;;;;;4966433;28;20248;-69
2022/07/20 03:33:50;;;;;;;7.50;5.70;;;18.10;99.90;;;;;;4966072;28;20212;-72
2022/07/20 03:36:15;;;;;;;10.07;5.60;;;18.10;99.90;;;;;;4972563;28;20191;-73
2022/07/20 03:38:41;;;;;;;6.03;5.03;;;18.00;99.90;;;;;;4974178;28;20854;-72
2022/07/20 03:41:06;;;;;;;14.30;6.37;;;18.00;99.90;;;;;;4972342;28;20199;-71
2022/07/20 03:43:32;;;;;;;9.10;6.43;;;18.00;99.90;;;;;;4966877;28;20199;-73
2022/07/20 03:45:57;;;;;;;5.37;4.87;;;17.90;99.90;;;;;;4973514;28;20215;-71
2022/07/20 03:48:23;;;;;;;6.17;5.67;;;18.00;99.90;;;;;;4971489;28;20791;-71
2022/07/20 03:50:48;;;;;;;5.70;5.10;;;17.90;99.90;;;;;;4973226;28;20180;-72
2022/07/20 03:53:14;;;;;;;8.73;5.30;;;17.90;99.90;;;;;;4970149;28;20672;-72
2022/07/20 03:55:40;;;;;;;9.73;5.87;;;17.90;99.90;;;;;;4973326;28;20180;-72
2022/07/20 03:58:05;;;;;;;6.50;5.53;;;18.00;99.90;;;;;;4971568;28;20550;-72
2022/07/20 04:00:31;;;;;;;5.60;4.83;;;17.90;99.90;;;;;;4965031;28;20416;-74
2022/07/20 04:02:57;;;;;;;8.40;6.03;;;18.00;99.90;;;;;;4971451;28;20497;-72
2022/07/20 04:05:22;;;;;;;7.33;5.67;;;18.00;99.90;;;;;;4971456;28;20206;-72
2022/07/20 04:07:48;;;;;;;8.87;6.23;;;18.00;99.90;;;;;;4971057;28;20172;-72
2022/07/20 04:10:13;;;;;;;6.53;4.93;;;18.00;99.90;;;;;;4973611;28;20208;-72
2022/07/20 04:12:39;;;;;;;6.80;4.80;;;18.00;99.90;;;;;;4971921;28;20219;-72
2022/07/20 04:15:05;;;;;;;10.63;6.33;;;18.00;99.90;;;;;;4970090;28;20191;-71
2022/07/20 04:17:31;;;;;;;12.47;5.60;;;18.00;99.90;;;;;;4972461;28;20172;-72
2022/07/20 04:19:56;;;;;;;10.90;5.47;;;18.10;99.90;;;;;;4971364;28;20963;-72
2022/07/20 04:22:22;;;;;;;9.90;5.90;;;18.10;99.90;;;;;;4972538;28;20195;-72
2022/07/20 04:24:47;;;;;;;5.20;4.50;;;18.10;99.90;;;;;;4969774;28;20187;-71
2022/07/20 04:27:13;;;;;;;5.93;5.03;;;18.10;99.90;;;;;;4972605;28;20196;-74
2022/07/20 04:29:38;;;;;;;9.40;5.83;;;18.20;99.90;;;;;;4969409;28;20196;-73
2022/07/20 04:32:04;;;;;;;6.47;5.43;;;18.20;99.90;;;;;;4971576;28;20212;-70
2022/07/20 04:34:30;;;;;;;11.20;6.07;;;18.20;99.90;;;;;;4966409;28;20184;-73
2022/07/20 04:36:56;;;;;;;9.90;5.37;;;18.30;99.90;;;;;;4971612;28;20415;-73
2022/07/20 04:39:21;;;;;;;8.90;6.03;;;18.30;99.90;;;;;;4973216;28;20173;-73
2022/07/20 04:41:47;;;;;;;10.63;5.60;;;18.40;99.90;;;;;;4969787;28;20199;-72
2022/07/20 04:44:13;;;;;;;8.23;5.60;;;18.40;99.90;;;;;;4968731;28;20559;-73
2022/07/20 04:46:38;;;;;;;11.10;5.77;;;18.40;99.90;;;;;;4970353;28;20664;-73
2022/07/20 04:49:04;;;;;;;7.67;6.00;;;18.50;99.90;;;;;;4972317;28;20555;-70
2022/07/20 04:51:30;;;;;;;11.47;5.20;;;18.60;99.90;;;;;;4969403;28;20754;-73
2022/07/20 04:53:56;;;;;;;8.30;6.40;;;18.60;99.90;;;;;;4972840;28;20247;-73
2022/07/20 04:56:21;;;;;;;7.80;6.47;;;18.70;99.90;;;;;;4970419;28;20526;-73
2022/07/20 04:58:50;;;;;;;18.93;6.20;;;18.80;99.90;;;;;;4966342;28;20184;-73
2022/07/20 05:01:15;;;;;;;8.00;6.23;;;18.90;99.90;;;;;;4969028;28;20223;-73
2022/07/20 05:03:42;;;;;;;6.80;5.90;;;19.10;99.90;;;;;;4971861;28;20529;-74
2022/07/20 05:06:08;;;;;;;15.40;6.03;;;19.30;99.90;;;;;;4972518;28;20601;-73
2022/07/20 05:08:33;;;;;;;9.93;6.67;;;19.40;99.90;;;;;;4968867;28;20438;-74
2022/07/20 05:10:59;;;;;;;8.23;6.37;;;19.60;99.90;;;;;;4971354;28;20208;-74
2022/07/20 05:13:24;;;;;;;7.10;6.40;;;19.90;99.90;;;;;;4965397;28;20599;-71
2022/07/20 05:15:50;;;;;;;10.20;7.40;;;20.10;99.90;;;;;;4972374;28;20599;-74
2022/07/20 05:18:15;;;;;;;10.50;6.60;;;20.50;99.90;;;;;;4970390;28;20180;-75
2022/07/20 05:20:41;;;;;;;6.73;5.97;;;21.10;99.90;;;;;;4969941;28;20290;-74
2022/07/20 05:23:06;;;;;;;8.60;6.17;;;21.70;99.90;;;;;;4966599;28;20181;-73
2022/07/20 05:25:33;;;;;;;15.83;6.50;;;22.40;99.90;;;;;;4952625;29;20243;-74
2022/07/20 05:27:58;;;;;;;10.97;6.70;;;23.00;99.90;;;;;;4953254;28;20191;-74
2022/07/20 05:30:24;;;;;;;9.23;6.50;;;23.50;99.90;;;;;;4960238;28;20447;-71
2022/07/20 05:32:49;;;;;;;12.40;7.50;;;24.10;99.90;;;;;;4966579;28;20216;-71
2022/07/20 05:35:15;;;;;;;12.00;7.87;;;24.70;99.90;;;;;;4968814;28;20558;-74
2022/07/20 05:37:40;;;;;;;10.97;6.43;;;25.30;99.90;;;;;;4971362;28;20226;-75
2022/07/20 05:40:07;;;;;;;10.00;5.43;;;25.80;99.90;;;;;;4958918;28;20184;-74
2022/07/20 05:42:32;;;;;;;16.13;6.10;;;26.10;99.90;;;;;;4970549;28;20262;-75
2022/07/20 05:44:58;;;;;;;9.70;5.80;;;26.50;99.90;;;;;;4965408;28;20443;-76
2022/07/20 05:47:23;;;;;;;6.47;5.20;;;26.80;99.90;;;;;;4971024;28;20190;-74
2022/07/20 05:49:49;;;;;;;13.17;5.80;;;27.10;99.90;;;;;;4969905;28;20286;-74
2022/07/20 05:52:15;;;;;;;7.70;5.70;;;27.40;99.90;;;;;;4955046;28;20691;-75
2022/07/20 05:54:41;;;;;;;11.50;5.13;;;27.70;99.90;;;;;;4953376;28;20276;-75
2022/07/20 05:57:06;;;;;;;8.33;5.43;;;28.00;99.90;;;;;;4969976;28;20412;-74
2022/07/20 05:59:32;;;;;;;5.27;4.77;;;28.00;99.90;;;;;;4971295;28;20195;-74
2022/07/20 06:01:58;;;;;;;10.37;5.77;;;28.00;99.90;;;;;;4959895;28;20204;-74
2022/07/20 06:04:23;;;;;;;14.30;5.47;;;28.30;99.90;;;;;;4971825;28;20176;-74
2022/07/20 06:06:49;;;;;;;11.93;5.93;;;28.30;99.90;;;;;;4971006;28;20191;-74
2022/07/20 06:09:14;;;;;;;10.83;5.87;;;28.60;99.90;;;;;;4972228;28;20565;-75
2022/07/20 06:11:40;;;;;;;9.30;5.20;;;28.90;99.90;;;;;;4967817;28;20215;-75
2022/07/20 06:14:06;;;;;;;12.60;6.70;;;29.10;99.90;;;;;;4967215;28;20708;-73
2022/07/20 06:16:31;;;;;;;13.87;6.50;;;29.20;99.90;;;;;;4971275;28;20530;-75
2022/07/20 06:18:57;;;;;;;12.37;5.90;;;29.40;99.90;;;;;;4972054;28;20529;-75
2022/07/20 06:21:23;;;;;;;13.97;5.87;;;29.60;99.90;;;;;;4968953;28;20273;-75
2022/07/20 06:23:48;;;;;;;11.70;6.17;;;29.70;99.90;;;;;;4968968;28;20184;-74
2022/07/20 06:26:14;;;;;;;7.93;5.60;;;29.90;99.90;;;;;;4971767;28;20707;-75
2022/07/20 06:28:39;;;;;;;11.63;5.90;;;30.00;99.90;;;;;;4963970;28;20185;-74
2022/07/20 06:31:06;;;;;;;14.30;5.20;;;30.20;99.90;;;;;;4970631;28;20640;-71
2022/07/20 06:33:32;;;;;;;8.87;5.80;;;30.30;99.90;;;;;;4964664;28;20589;-74
2022/07/20 06:35:58;;;;;;;7.90;5.63;;;30.50;99.90;;;;;;4971507;28;20416;-73
2022/07/20 06:38:23;;;;;;;9.53;6.10;;;30.50;99.90;;;;;;4969999;28;20439;-74
2022/07/20 06:40:49;;;;;;;11.50;5.70;;;30.60;99.90;;;;;;4970015;28;20447;-74
2022/07/20 06:43:14;;;;;;;17.07;5.90;;;30.90;99.90;;;;;;4965726;28;20235;-74
2022/07/20 06:45:40;;;;;;;16.10;6.40;;;31.00;99.90;;;;;;4968635;28;20187;-73
2022/07/20 06:48:06;;;;;;;8.07;5.70;;;31.20;99.90;;;;;;4967573;28;20185;-72
2022/07/20 06:50:31;;;;;;;11.47;6.10;;;31.50;99.40;;;;;;4953420;28;20184;-73
2022/07/20 06:52:56;;;;;;;9.73;5.93;;;31.50;99.10;;;;;;4970160;28;20208;-74
2022/07/20 06:55:22;;;;;;;10.67;6.50;;;31.70;97.90;;;;;;4966616;28;20723;-74
2022/07/20 06:57:48;;;;;;;7.47;5.40;;;31.90;98.20;;;;;;4953922;28;20183;-72
2022/07/20 07:00:13;;;;;;;6.93;5.60;;;32.00;98.30;;;;;;4968699;28;20183;-74
2022/07/20 07:02:39;;;;;;;10.47;5.77;;;32.30;97.70;;;;;;4970276;28;20291;-75
2022/07/20 07:05:06;;;;;;;8.60;5.80;;;32.30;96.10;;;;;;4960757;28;20239;-75
2022/07/20 07:07:31;;;;;;;8.23;6.40;;;32.30;96.90;;;;;;4971046;28;20428;-74
2022/07/20 07:09:57;;;;;;;7.80;6.00;;;32.60;96.10;;;;;;4953252;28;20439;-74
2022/07/20 07:12:22;;;;;;;10.77;6.27;;;32.70;95.00;;;;;;4968458;28;20246;-72
2022/07/20 07:14:48;;;;;;;10.33;6.30;;;32.70;94.20;;;;;;4970370;28;20192;-74
2022/07/20 07:17:14;;;;;;;8.20;6.20;;;32.80;94.20;;;;;;4974403;28;20184;-74
2022/07/20 07:19:40;;;;;;;13.00;6.40;;;33.00;94.10;;;;;;4971806;28;20207;-71
2022/07/20 07:22:06;;;;;;;11.40;6.63;;;33.30;93.90;;;;;;4971303;28;20195;-72
2022/07/20 07:24:32;;;;;;;10.57;6.60;;;33.50;92.70;;;;;;4973845;28;20430;-74
2022/07/20 07:26:57;;;;;;;9.40;6.50;;;33.90;92.90;;;;;;4968785;28;20200;-74
2022/07/20 07:29:24;;;;;;;17.83;6.80;;;34.10;91.70;;;;;;4969796;28;20711;-74
2022/07/20 07:31:50;;;;;;;8.03;7.20;;;34.00;90.60;;;;;;4966756;28;20586;-71
2022/07/20 07:34:15;;;;;;;11.10;7.47;;;34.20;91.00;;;;;;4968899;28;20471;-74
2022/07/20 07:36:41;;;;;;;17.33;6.57;;;34.30;90.60;;;;;;4971297;28;20199;-72
2022/07/20 07:39:06;;;;;;;16.10;8.13;;;34.30;90.30;;;;;;4956792;28;20271;-73
2022/07/20 07:41:32;;;;;;;8.77;6.27;;;34.20;89.00;;;;;;4953804;28;20219;-74
2022/07/20 07:43:57;;;;;;;9.97;6.60;;;34.30;90.50;;;;;;4972039;28;20605;-72
2022/07/20 07:46:23;;;;;;;10.70;6.00;;;34.60;90.80;;;;;;4972195;28;20177;-74
2022/07/20 07:48:48;;;;;;;12.00;6.20;;;34.90;89.30;;;;;;4971549;28;20184;-73
2022/07/20 07:51:14;;;;;;;9.33;7.00;;;35.10;87.60;;;;;;4973246;28;20318;-73
2022/07/20 07:53:39;;;;;;;14.70;6.77;;;34.90;88.00;;;;;;4955274;28;20212;-72
2022/07/20 07:56:05;;;;;;;15.70;7.20;;;35.30;87.10;;;;;;4954757;29;20180;-72
2022/07/20 07:58:31;;;;;;;11.70;7.10;;;35.40;86.70;;;;;;4963715;28;20179;-74
2022/07/20 08:00:56;;;;;;;8.13;7.33;;;35.30;85.10;;;;;;4970532;28;20656;-74
2022/07/20 08:03:22;;;;;;;14.90;7.13;;;34.90;86.00;;;;;;4971609;28;20188;-74
2022/07/20 08:05:48;;;;;;;10.23;6.50;;;35.10;85.10;;;;;;4974030;28;20180;-73
2022/07/20 08:08:15;;;;;;;14.00;7.90;;;35.50;85.20;;;;;;4955374;28;20192;-75
2022/07/20 08:10:41;;;;;;;13.43;6.93;;;35.60;83.10;;;;;;4970273;28;20540;-73
2022/07/20 08:13:08;;;;;;;8.87;7.37;;;35.50;82.30;;;;;;4969181;28;20476;-74
2022/07/20 08:15:33;;;;;;;10.60;6.73;;;35.50;83.20;;;;;;4973566;28;20423;-74
2022/07/20 08:17:59;;;;;;;9.53;6.87;;;35.60;84.20;;;;;;4972432;28;21007;-74
2022/07/20 08:20:25;;;;;;;12.60;6.90;;;36.00;82.90;;;;;;4971054;28;20259;-72
2022/07/20 08:22:51;;;;;;;15.00;6.10;;;36.10;81.30;;;;;;4972811;28;20431;-73
2022/07/20 08:25:18;;;;;;;12.13;6.57;;;36.40;80.40;;;;;;4970533;28;20661;-73
2022/07/20 08:27:44;;;;;;;7.23;6.50;;;36.70;79.30;;;;;;4973557;28;20420;-73
2022/07/20 08:30:10;;;;;;;13.07;7.00;;;36.70;78.50;;;;;;4968969;28;20439;-74
2022/07/20 08:32:35;;;;;;;10.07;6.53;;;36.90;79.60;;;;;;4970091;28;20267;-74
2022/07/20 08:35:01;;;;;;;15.20;6.63;;;37.30;79.30;;;;;;4969102;28;20431;-74
2022/07/20 08:37:26;;;;;;;8.93;6.53;;;37.70;79.40;;;;;;4972890;28;20187;-74
2022/07/20 08:39:52;;;;;;;9.47;7.90;;;38.00;75.20;;;;;;4971398;28;20270;-71
2022/07/20 08:42:18;;;;;;;11.53;6.73;;;38.00;74.50;;;;;;4970050;28;20200;-74
2022/07/20 08:44:44;;;;;;;9.27;7.57;;;38.10;75.30;;;;;;4968779;28;20304;-71
2022/07/20 08:47:13;;;;;;;16.40;6.73;;;38.40;75.70;;;;;;4973037;28;20673;-74
2022/07/20 08:49:44;;;;;;;8.83;7.03;;;38.60;74.80;;;;;;4973134;28;20449;-74
2022/07/20 08:52:10;;;;;;;10.17;6.80;;;38.50;72.80;;;;;;4968956;28;20509;-74
2022/07/20 08:54:36;;;;;;;11.50;7.63;;;38.60;72.90;;;;;;4972443;28;20419;-73
2022/07/20 08:57:08;;;;;;;9.87;7.80;;;38.90;71.80;;;;;;4970283;28;20190;-74
2022/07/20 08:59:33;;;;;;;10.80;6.83;;;38.80;71.40;;;;;;4970112;28;20662;-71
2022/07/20 09:02:03;;;;;;;12.27;7.33;;;38.60;71.40;;;;;;4966820;28;20501;-72
2022/07/20 09:04:28;;;;;;;9.87;7.43;;;39.00;71.70;;;;;;4953373;29;20172;-70
2022/07/20 09:06:54;;;;;;;9.27;6.70;;;39.30;72.00;;;;;;4961350;28;20457;-74
2022/07/20 09:09:20;;;;;;;9.97;6.60;;;39.80;70.40;;;;;;4972002;28;20190;-75
2022/07/20 09:11:46;;;;;;;6.63;5.80;;;39.80;69.20;;;;;;4965238;28;20572;-74
2022/07/20 09:14:12;;;;;;;4.97;4.57;;;40.30;69.80;;;;;;4961902;28;20471;-75
2022/07/20 09:16:43;;;;;;;6.70;5.23;;;40.60;63.60;;;;;;4970078;28;20411;-74
2022/07/20 09:19:10;;;;;;;8.30;4.97;;;40.40;62.80;;;;;;4971194;28;20185;-75
2022/07/20 09:21:35;;;;;;;7.00;5.30;;;40.80;61.20;;;;;;4971239;28;20449;-73
2022/07/20 09:24:04;;;;;;;8.23;5.17;;;40.80;59.70;;;;;;4969706;28;20855;-73
2022/07/20 09:26:30;;;;;;;8.90;4.93;;;41.20;59.50;;;;;;4972179;28;20190;-74
2022/07/20 09:28:57;;;;;;;6.30;5.10;;;41.20;58.70;;;;;;4964838;28;20438;-75
2022/07/20 09:31:35;;;;;;;7.60;5.20;;;41.10;58.80;;;;;;4970910;28;20221;-74
2022/07/20 09:34:08;;;;;;;9.00;5.47;;;41.00;60.00;;;;;;4967337;28;20906;-76
2022/07/20 09:36:36;;;;;;;12.60;6.57;;;41.20;59.30;;;;;;4971869;28;20423;-75
2022/07/20 09:39:08;;;;;;;11.87;5.67;;;41.40;58.70;;;;;;4970776;28;20207;-75
2022/07/20 09:41:36;;;;;;;8.87;4.70;;;41.70;59.10;;;;;;4970825;28;20195;-71
2022/07/20 09:44:05;;;;;;;9.90;5.83;;;41.70;58.20;;;;;;4953558;28;20193;-75
2022/07/20 09:46:33;;;;;;;15.57;5.60;;;41.70;58.10;;;;;;4970840;28;20176;-75
2022/07/20 09:49:03;;;;;;;9.83;4.70;;;41.50;58.70;;;;;;4970302;28;20667;-73
2022/07/20 09:51:40;;;;;;;11.53;5.23;;;41.60;58.00;;;;;;4970741;28;20214;-72
2022/07/20 09:54:12;;;;;;;9.57;5.10;;;41.90;57.70;;;;;;4969750;28;20333;-73
2022/07/20 09:56:43;;;;;;;6.17;5.60;;;41.60;56.40;;;;;;4967974;28;20246;-75
2022/07/20 09:59:13;;;;;;;5.97;5.40;;;41.80;57.90;;;;;;4969201;28;20186;-75
2022/07/20 10:01:45;;;;;;;7.30;5.40;;;42.10;57.20;;;;;;4970580;28;20210;-71
2022/07/20 10:04:11;;;;;;;10.65;6.13;;;42.40;56.70;;;;;;4971125;28;20675;-75
2022/07/20 10:06:39;;;;;;;11.40;5.70;;;42.00;56.80;;;;;;4969009;28;20187;-76
2022/07/20 10:09:06;;;;;;;8.43;5.10;;;42.40;57.70;;;;;;4971695;28;20183;-73
2022/07/20 10:11:32;;;;;;;5.72;5.25;;;42.20;56.80;;;;;;4968790;28;20766;-75
2022/07/20 10:14:03;;;;;;;5.93;5.43;;;42.10;58.10;;;;;;4969471;28;20298;-75
2022/07/20 10:16:46;;;;;;;6.63;5.35;;;42.30;56.20;;;;;;4967350;28;20657;-73
2022/07/20 10:19:12;;;;;;;5.22;4.75;;;42.60;56.90;;;;;;4952031;29;20179;-75
2022/07/20 10:21:43;;;;;;;11.75;5.07;;;42.60;55.70;;;;;;4957830;28;20210;-72
2022/07/20 10:24:30;;;;;;;7.97;5.68;;;42.60;56.60;;;;;;4954079;28;20557;-75
2022/07/20 10:27:08;;;;;;;8.70;5.87;;;41.90;56.50;;;;;;4967734;28;20218;-75
2022/07/20 10:29:37;;;;;;;5.73;5.17;;;41.10;56.80;;;;;;4963201;28;20250;-71
2022/07/20 10:32:23;;;;;;;6.50;5.60;;;40.60;57.90;;;;;;4965498;28;20227;-73
2022/07/20 10:35:00;;;;;;;8.63;6.20;;;40.60;57.20;;;;;;4959253;28;20443;-74
2022/07/20 10:37:45;;;;;;;12.30;6.00;;;40.90;57.90;;;;;;4967927;28;20525;-74
2022/07/20 10:40:20;;;;;;;6.80;5.20;;;40.80;57.30;;;;;;4966491;28;20438;-74
2022/07/20 10:42:52;;;;;;;9.27;5.90;;;40.60;56.50;;;;;;4968207;28;20542;-75
2022/07/20 10:45:22;;;;;;;5.90;5.40;;;40.70;56.50;;;;;;4969504;28;20445;-75
2022/07/20 10:47:49;;;;;;;7.70;5.00;;;41.10;56.40;;;;;;4968551;28;20435;-72
2022/07/20 10:50:17;;;;;;;7.03;5.20;;;41.30;56.10;;;;;;4972661;28;20533;-75
2022/07/20 10:52:42;;;;;;;8.70;5.30;;;41.20;56.50;;;;;;4956071;28;20916;-75
2022/07/20 10:55:34;;;;;;;6.50;5.60;;;41.60;57.70;;;;;;4975144;28;20419;-75
2022/07/20 10:58:14;;;;;;;7.03;6.30;;;41.50;57.20;;;;;;4971288;28;20195;-73
2022/07/20 11:00:42;;;;;;;5.57;5.07;;;41.60;56.40;;;;;;4973483;28;20751;-74
2022/07/20 11:03:17;;;;;;;7.53;5.77;;;41.90;57.50;;;;;;4971979;28;20812;-75
2022/07/20 11:05:47;;;;;;;5.73;5.10;;;41.50;56.80;;;;;;4955269;29;20510;-75
2022/07/20 11:08:13;;;;;;;6.47;6.00;;;41.60;56.70;;;;;;4955523;28;20231;-75
2022/07/20 11:10:40;;;;;;;7.87;5.40;;;41.30;56.30;;;;;;4971551;28;20446;-73
2022/07/20 11:13:08;;;;;;;6.30;5.40;;;41.10;57.40;;;;;;4973222;28;20211;-73
2022/07/20 11:15:44;;;;;;;5.93;5.17;;;41.00;57.60;;;;;;4967548;28;20437;-75
2022/07/20 11:18:11;;;;;;;8.43;5.93;;;40.70;56.90;;;;;;4973958;28;20874;-74
2022/07/20 11:20:49;;;;;;;9.83;6.73;;;40.60;57.20;;;;;;4968326;28;21251;-73
2022/07/20 11:23:17;;;;;;;9.63;6.20;;;40.60;57.40;;;;;;4971192;28;20810;-73
2022/07/20 11:25:55;;;;;;;12.73;5.87;;;40.60;58.70;;;;;;4970047;28;20500;-75
2022/07/20 11:28:28;;;;;;;5.90;5.47;;;40.70;57.70;;;;;;4972708;28;20862;-75
2022/07/20 11:30:55;;;;;;;6.57;5.63;;;40.40;56.40;;;;;;4962900;28;20839;-75
2022/07/20 11:33:23;;;;;;;6.10;5.70;;;40.20;56.60;;;;;;4961229;28;20498;-75
2022/07/20 11:35:49;;;;;;;8.30;5.83;;;40.30;58.10;;;;;;4968004;28;20522;-75
2022/07/20 11:38:16;;;;;;;7.70;6.30;;;40.20;57.90;;;;;;4973121;28;20868;-75
2022/07/20 11:40:41;;;;;;;12.00;6.50;;;40.00;58.90;;;;;;4971594;28;20183;-75
2022/07/20 11:43:10;;;;;;;9.43;7.10;;;40.00;59.00;;;;;;4971989;28;20461;-75
2022/07/20 11:45:36;;;;;;;8.07;7.23;;;39.80;59.80;;;;;;4961645;28;20401;-75
2022/07/20 11:48:14;;;;;;;6.30;5.83;;;39.60;60.00;;;;;;4974505;28;20934;-75
2022/07/20 11:50:40;;;;;;;6.90;6.40;;;39.70;60.50;;;;;;4972446;28;20182;-76
2022/07/20 11:53:21;;;;;;;9.73;6.20;;;39.90;58.90;;;;;;4965896;28;20481;-73
2022/07/20 11:55:47;;;;;;;8.00;7.20;;;39.80;59.50;;;;;;4973769;28;20210;-73
2022/07/20 11:58:12;;;;;;;9.27;6.83;;;39.60;59.40;;;;;;4971861;28;20474;-75
2022/07/20 12:00:38;;;;;;;13.23;7.53;;;39.40;59.20;;;;;;4966950;28;20246;-74
2022/07/20 12:03:04;;;;;;;10.40;6.50;;;39.30;59.30;;;;;;4954147;28;20191;-76
2022/07/20 12:05:29;;;;;;;8.10;6.83;;;39.30;59.10;;;;;;4964969;28;20198;-74
2022/07/20 12:08:11;;;;;;;6.80;6.03;;;39.10;59.30;;;;;;4967116;28;20196;-74
2022/07/20 12:10:37;;;;;;;7.87;7.27;;;39.00;60.40;;;;;;4965607;28;20180;-73
2022/07/20 12:13:05;;;;;;;12.57;7.43;;;38.80;61.90;;;;;;4968634;28;20477;-75
2022/07/20 12:15:31;;;;;;;10.40;6.90;;;38.60;61.40;;;;;;4968322;28;20241;-74
2022/07/20 12:17:57;;;;;;;12.43;7.07;;;38.60;62.00;;;;;;4971328;28;21020;-75
2022/07/20 12:20:24;;;;;;;8.83;7.90;;;38.80;61.60;;;;;;4971992;28;20216;-75
2022/07/20 12:22:52;;;;;;;10.60;7.60;;;39.00;62.90;;;;;;4972755;28;20214;-74
2022/07/20 12:25:18;;;;;;;15.07;8.10;;;39.00;60.70;;;;;;4968586;28;20439;-75
2022/07/20 12:27:44;;;;;;;12.43;8.40;;;38.90;62.30;;;;;;4971983;28;20916;-75
2022/07/20 12:30:26;;;;;;;9.43;8.53;;;38.60;60.70;;;;;;4961895;28;20657;-75
2022/07/20 12:33:21;;;;;;;13.17;11.40;;;38.50;63.10;;;;;;4965590;28;20477;-74
2022/07/20 12:35:50;;;;;;;20.77;11.10;;;38.40;63.90;;;;;;4872522;28;20757;-76
2022/07/20 12:38:17;;;;;;;18.57;10.40;;;38.50;65.10;;;;;;4861106;28;20824;-76
2022/07/20 12:40:46;;;;;;;15.77;10.77;;;38.40;65.30;;;;;;4890576;28;20627;-74
2022/07/20 12:43:35;;;;;;;18.67;12.53;;;38.40;64.20;;;;;;4887962;28;20447;-75
2022/07/20 12:46:07;;;;;;;14.57;13.07;;;38.10;65.50;;;;;;4904052;28;20458;-74
2022/07/20 12:48:40;;;;;;;14.63;12.77;;;37.70;65.30;;;;;;4908493;28;20489;-71
2022/07/20 12:51:08;;;;;;;17.47;12.53;;;37.50;67.40;;;;;;4911629;28;20463;-74
2022/07/20 12:53:35;;;;;;;18.67;13.17;;;37.30;66.80;;;;;;4910491;28;20467;-73
2022/07/20 12:56:01;;;;;;;15.73;13.60;;;36.90;66.00;;;;;;4905516;28;20443;-73
2022/07/20 12:58:27;;;;;;;15.63;11.90;;;36.30;67.20;;;;;;4922608;28;20826;-76
2022/07/20 13:00:53;;;;;;;15.10;13.40;;;35.70;68.10;;;;;;4957572;28;20433;-76
2022/07/20 13:03:19;;;;;;;17.07;13.13;;;35.40;69.30;;;;;;4970391;28;20238;-77
2022/07/20 13:05:45;;;;;;;18.20;12.83;;;35.20;70.00;;;;;;4972523;28;20191;-75
2022/07/20 13:08:10;;;;;;;23.77;13.50;;;35.00;70.50;;;;;;4968389;28;20447;-77
2022/07/20 13:10:36;;;;;;;15.60;13.57;;;34.80;70.80;;;;;;4971575;28;20191;-75
2022/07/20 13:13:02;;;;;;;15.73;12.67;;;34.50;72.00;;;;;;4961314;28;20286;-77
2022/07/20 13:15:27;;;;;;;19.10;14.40;;;34.40;73.60;;;;;;4958236;28;20561;-76
2022/07/20 13:17:53;;;;;;;20.40;15.60;;;34.20;74.90;;;;;;4960694;28;20435;-76
2022/07/20 13:20:19;;;;;;;17.80;15.80;;;33.80;76.50;;;;;;4972303;28;20176;-76
2022/07/20 13:22:44;;;;;;;18.43;15.30;;;33.60;76.70;;;;;;4968987;28;20766;-73
2022/07/20 13:25:10;;;;;;;16.90;15.17;;;33.20;77.80;;;;;;4970356;28;20196;-77
2022/07/20 13:27:36;;;;;;;16.67;15.23;;;33.10;79.10;;;;;;4969643;28;20284;-76
2022/07/20 13:30:03;;;;;;;17.83;15.70;;;32.80;80.00;;;;;;4967864;28;20203;-77
2022/07/20 13:32:29;;;;;;;17.00;15.60;;;32.60;81.20;;;;;;4970345;28;20509;-76
2022/07/20 13:34:54;;;;;;;25.93;16.53;;;32.50;82.20;;;;;;4953758;28;20482;-77
2022/07/20 13:37:20;;;;;;;20.53;16.43;;;32.30;82.80;;;;;;4952626;29;20172;-76
2022/07/20 13:39:45;;;;;;;23.83;16.57;;;32.20;84.00;;;;;;4963280;28;20661;-76
2022/07/20 13:42:11;;;;;;;22.43;15.30;;;32.00;86.50;;;;;;4970867;28;20200;-78
2022/07/20 13:44:38;;;;;;;26.33;16.30;;;31.70;91.20;;;;;;4968308;28;20668;-77
2022/07/20 13:47:04;;;;;;;23.60;16.67;;;31.40;93.00;;;;;;4971963;28;20203;-77
2022/07/20 13:49:29;;;;;;;20.20;16.40;;;31.20;96.00;;;;;;4969652;28;20879;-77
2022/07/20 13:51:55;;;;;;;19.07;16.50;;;31.00;97.80;;;;;;4969287;28;20466;-76
2022/07/20 13:54:20;;;;;;;22.80;17.53;;;30.90;99.30;;;;;;4969655;28;20217;-76
2022/07/20 13:56:46;;;;;;;19.23;17.23;;;30.80;99.40;;;;;;4971992;28;20188;-76
2022/07/20 13:59:12;;;;;;;22.30;17.20;;;30.80;99.90;;;;;;4969828;28;20220;-77
2022/07/20 14:01:44;;;;;;;22.90;17.10;;;30.90;99.90;;;;;;4968491;28;20211;-76
2022/07/20 14:04:14;;;;;;;17.93;16.10;;;31.20;99.90;;;;;;4971735;28;20176;-76
2022/07/20 14:06:41;;;;;;;20.80;18.00;;;31.50;99.90;;;;;;4954027;28;21037;-76
2022/07/20 14:09:08;;;;;;;28.20;17.80;;;31.90;99.90;;;;;;4971742;28;20415;-77
2022/07/20 14:11:34;;;;;;;22.23;17.70;;;32.10;99.90;;;;;;4950409;28;20467;-77
2022/07/20 14:14:00;;;;;;;27.70;18.20;;;32.30;99.90;;;;;;4969003;28;20468;-77